createdAt,value
2018-05-18T00:01:00.116Z,68.90
2018-05-18T00:03:28.168Z,68.80
2018-05-18T00:05:57.028Z,68.80
2018-05-18T00:08:25.095Z,68.80
2018-05-18T00:10:52.259Z,68.80
2018-05-18T00:13:19.420Z,68.80
2018-05-18T00:15:46.584Z,68.80
2018-05-18T00:18:14.515Z,68.80
2018-05-18T00:20:41.679Z,68.80
2018-05-18T00:23:08.901Z,68.70
2018-05-18T00:25:36.063Z,68.80
2018-05-18T00:28:03.309Z,68.90
2018-05-18T00:30:31.383Z,68.90
2018-05-18T00:32:58.552Z,68.80
2018-05-18T00:35:25.781Z,68.80
2018-05-18T00:37:53.387Z,69.60
2018-05-18T00:40:20.555Z,69.10
2018-05-18T00:42:49.395Z,69.00
2018-05-18T00:45:17.469Z,69.00
2018-05-18T00:47:44.632Z,69.10
2018-05-18T00:50:12.592Z,68.90
2018-05-18T00:52:40.572Z,69.00
2018-05-18T00:55:13.711Z,69.30
2018-05-18T00:57:42.535Z,69.40
2018-05-18T01:00:10.605Z,69.40
2018-05-18T01:02:38.704Z,69.30
2018-05-18T01:05:06.759Z,69.30
2018-05-18T01:07:33.927Z,69.10
2018-05-18T01:10:01.088Z,69.20
2018-05-18T01:12:29.144Z,69.10
2018-05-18T01:14:56.311Z,69.10
2018-05-18T01:17:23.475Z,69.10
2018-05-18T01:19:51.548Z,69.70
2018-05-18T01:22:18.707Z,69.00
2018-05-18T01:24:46.640Z,68.80
2018-05-18T01:27:15.515Z,69.10
2018-05-18T01:29:43.577Z,69.10
2018-05-18T01:32:11.643Z,68.80
2018-05-18T01:34:39.715Z,69.00
2018-05-18T01:37:06.920Z,68.90
2018-05-18T01:39:34.075Z,68.90
2018-05-18T01:42:01.244Z,68.80
2018-05-18T01:44:29.207Z,68.90
2018-05-18T01:46:58.034Z,68.90
2018-05-18T01:49:26.148Z,68.90
2018-05-18T01:51:53.347Z,68.90
2018-05-18T01:54:20.509Z,68.90
2018-05-18T01:56:47.707Z,68.80
2018-05-18T01:59:15.657Z,69.50
2018-05-18T02:01:43.825Z,68.90
2018-05-18T02:04:10.987Z,68.70
2018-05-18T02:06:38.153Z,68.80
2018-05-18T02:09:05.312Z,68.80
2018-05-18T02:11:33.285Z,68.80
2018-05-18T02:14:01.235Z,68.80
2018-05-18T02:16:28.400Z,68.70
2018-05-18T02:18:55.563Z,68.80
2018-05-18T02:21:22.719Z,68.80
2018-05-18T02:23:50.660Z,68.70
2018-05-18T02:26:18.730Z,68.70
2018-05-18T02:28:46.776Z,68.70
2018-05-18T02:31:13.979Z,68.60
2018-05-18T02:33:41.143Z,68.60
2018-05-18T02:36:09.119Z,68.60
2018-05-18T02:38:37.049Z,68.60
2018-05-18T02:41:04.216Z,68.60
2018-05-18T02:43:31.376Z,68.60
2018-05-18T02:45:59.308Z,68.60
2018-05-18T02:48:26.474Z,68.50
2018-05-18T02:50:53.640Z,68.50
2018-05-18T02:53:23.219Z,68.60
2018-05-18T02:55:51.259Z,68.60
2018-05-18T02:58:18.475Z,68.50
2018-05-18T03:00:46.400Z,68.60
2018-05-18T03:03:13.605Z,68.60
2018-05-18T03:05:41.544Z,68.60
2018-05-18T03:08:09.543Z,68.60
2018-05-18T03:10:38.376Z,69.30
2018-05-18T03:13:05.644Z,68.50
2018-05-18T03:15:32.811Z,68.40
2018-05-18T03:17:59.981Z,68.40
2018-05-18T03:20:27.148Z,68.30
2018-05-18T03:22:55.166Z,68.40
2018-05-18T03:25:22.421Z,68.40
2018-05-18T03:27:49.672Z,68.20
2018-05-18T03:30:16.840Z,68.50
2018-05-18T03:32:44.012Z,68.40
2018-05-18T03:35:11.229Z,68.20
2018-05-18T03:37:38.396Z,68.20
2018-05-18T03:40:05.566Z,68.20
2018-05-18T03:42:32.729Z,68.30
2018-05-18T03:45:00.757Z,68.20
2018-05-18T03:47:27.920Z,68.20
2018-05-18T03:49:55.841Z,68.10
2018-05-18T03:52:23.027Z,68.30
2018-05-18T03:54:50.193Z,68.20
2018-05-18T03:57:17.360Z,68.20
2018-05-18T03:59:44.528Z,68.30
2018-05-18T04:02:18.443Z,68.30
2018-05-18T04:04:52.357Z,68.10
2018-05-18T04:07:26.411Z,68.20
2018-05-18T04:09:54.492Z,68.20
2018-05-18T04:12:21.699Z,68.20
2018-05-18T04:14:50.524Z,68.00
2018-05-18T04:17:17.700Z,67.90
2018-05-18T04:19:44.932Z,67.90
2018-05-18T04:22:12.291Z,67.90
2018-05-18T04:24:39.577Z,67.80
2018-05-18T04:27:06.744Z,67.80
2018-05-18T04:29:34.761Z,67.90
2018-05-18T04:32:02.017Z,67.80
2018-05-18T04:34:29.269Z,67.60
2018-05-18T04:36:56.560Z,67.60
2018-05-18T04:39:23.723Z,67.70
2018-05-18T04:41:50.884Z,67.60
2018-05-18T04:44:18.904Z,67.50
2018-05-18T04:46:46.154Z,67.50
2018-05-18T04:49:13.324Z,67.60
2018-05-18T04:51:40.561Z,67.70
2018-05-18T04:54:07.817Z,67.70
2018-05-18T04:56:34.979Z,67.70
2018-05-18T04:59:02.213Z,67.50
2018-05-18T05:01:29.388Z,67.70
2018-05-18T05:03:56.617Z,67.70
2018-05-18T05:06:23.876Z,67.70
2018-05-18T05:08:51.070Z,67.80
2018-05-18T05:11:19.976Z,67.80
2018-05-18T05:13:47.904Z,67.60
2018-05-18T05:16:15.201Z,67.60
2018-05-18T05:18:42.349Z,67.50
2018-05-18T05:21:10.370Z,67.50
2018-05-18T05:23:37.588Z,67.60
2018-05-18T05:26:05.496Z,67.70
2018-05-18T05:28:32.672Z,67.40
2018-05-18T05:31:00.864Z,67.60
2018-05-18T05:33:28.889Z,67.70
2018-05-18T05:35:56.064Z,67.70
2018-05-18T05:38:23.285Z,67.50
2018-05-18T05:40:50.547Z,67.50
2018-05-18T05:43:18.541Z,67.60
2018-05-18T05:45:45.811Z,67.70
2018-05-18T05:48:13.036Z,67.80
2018-05-18T05:50:40.269Z,67.90
2018-05-18T05:53:07.457Z,68.00
2018-05-18T05:55:35.517Z,67.90
2018-05-18T05:58:02.751Z,68.10
2018-05-18T06:00:29.921Z,68.00
2018-05-18T06:02:57.152Z,68.10
2018-05-18T06:05:24.336Z,68.20
2018-05-18T06:07:51.557Z,68.30
2018-05-18T06:10:18.722Z,68.30
2018-05-18T06:12:45.897Z,68.50
2018-05-18T06:15:13.060Z,68.40
2018-05-18T06:17:40.992Z,68.70
2018-05-18T06:20:08.239Z,68.60
2018-05-18T06:22:35.407Z,68.50
2018-05-18T06:25:02.688Z,68.50
2018-05-18T06:27:30.715Z,69.00
2018-05-18T06:29:58.878Z,68.60
2018-05-18T06:32:27.055Z,68.20
2018-05-18T06:34:54.401Z,68.30
2018-05-18T06:37:21.571Z,68.80
2018-05-18T06:39:48.824Z,68.00
2018-05-18T06:42:15.993Z,67.60
2018-05-18T06:44:43.162Z,67.20
2018-05-18T06:47:11.842Z,66.60
2018-05-18T06:49:39.067Z,66.60
2018-05-18T06:52:06.235Z,66.50
2018-05-18T06:54:33.431Z,66.20
2018-05-18T06:57:01.357Z,66.20
2018-05-18T06:59:29.115Z,66.20
2018-05-18T07:01:56.311Z,66.20
2018-05-18T07:04:24.322Z,66.20
2018-05-18T07:06:51.483Z,66.20
2018-05-18T07:09:18.644Z,66.40
2018-05-18T07:11:45.846Z,66.10
2018-05-18T07:14:13.852Z,66.40
2018-05-18T07:16:41.056Z,66.40
2018-05-18T07:19:09.075Z,66.50
2018-05-18T07:21:36.324Z,66.60
2018-05-18T07:24:03.483Z,66.30
2018-05-18T07:26:30.737Z,66.40
2018-05-18T07:28:57.992Z,66.50
2018-05-18T07:31:25.972Z,66.50
2018-05-18T07:33:53.181Z,66.50
2018-05-18T07:36:20.358Z,66.50
2018-05-18T07:38:47.614Z,66.60
2018-05-18T07:41:16.401Z,66.50
2018-05-18T07:43:43.607Z,66.40
2018-05-18T07:46:11.156Z,66.50
2018-05-18T07:48:39.227Z,67.30
2018-05-18T07:51:07.237Z,66.40
2018-05-18T07:53:34.512Z,66.40
2018-05-18T07:56:02.400Z,66.60
2018-05-18T07:58:29.616Z,66.60
2018-05-18T08:00:56.799Z,66.70
2018-05-18T08:03:24.779Z,66.80
2018-05-18T08:05:51.943Z,66.80
2018-05-18T08:08:19.958Z,66.80
2018-05-18T08:10:47.208Z,66.80
2018-05-18T08:13:14.370Z,66.90
2018-05-18T08:15:41.613Z,66.90
2018-05-18T08:18:08.771Z,66.80
2018-05-18T08:20:35.944Z,66.80
2018-05-18T08:23:03.113Z,66.70
2018-05-18T08:25:30.321Z,66.80
2018-05-18T08:27:57.492Z,66.90
2018-05-18T08:30:24.656Z,66.80
2018-05-18T08:32:51.827Z,66.90
2018-05-18T08:35:19.850Z,67.30
2018-05-18T08:37:47.024Z,67.30
2018-05-18T08:40:14.352Z,67.20
2018-05-18T08:42:42.292Z,67.30
2018-05-18T08:45:10.225Z,67.40
2018-05-18T08:47:38.148Z,67.30
2018-05-18T08:50:06.218Z,67.40
2018-05-18T08:52:34.409Z,67.10
2018-05-18T08:55:01.573Z,67.00
2018-05-18T08:57:28.852Z,67.10
2018-05-18T08:59:56.072Z,67.20
2018-05-18T09:02:23.319Z,67.20
2018-05-18T09:04:50.478Z,67.20
2018-05-18T09:07:17.648Z,67.20
2018-05-18T09:09:44.857Z,67.20
2018-05-18T09:12:12.129Z,67.20
2018-05-18T09:14:39.386Z,67.40
2018-05-18T09:17:06.636Z,67.40
2018-05-18T09:19:33.895Z,67.10
2018-05-18T09:22:01.141Z,67.30
2018-05-18T09:24:28.346Z,67.20
2018-05-18T09:26:56.276Z,67.60
2018-05-18T09:29:24.249Z,67.60
2018-05-18T09:31:51.491Z,67.40
2018-05-18T09:34:18.755Z,67.50
2018-05-18T09:36:47.536Z,67.40
2018-05-18T09:39:15.623Z,67.40
2018-05-18T09:41:43.856Z,67.30
2018-05-18T09:44:12.055Z,67.50
2018-05-18T09:46:39.228Z,67.50
2018-05-18T09:49:06.460Z,67.40
2018-05-18T09:51:33.623Z,67.50
2018-05-18T09:54:00.856Z,67.60
2018-05-18T09:56:28.755Z,67.50
2018-05-18T09:58:56.093Z,67.60
2018-05-18T10:01:23.259Z,67.60
2018-05-18T10:03:50.500Z,67.60
2018-05-18T10:06:17.855Z,67.60
2018-05-18T10:08:45.108Z,67.40
2018-05-18T10:11:12.322Z,67.60
2018-05-18T10:13:40.260Z,67.80
2018-05-18T10:16:07.475Z,67.80
2018-05-18T10:18:34.716Z,67.80
2018-05-18T10:21:01.882Z,67.80
2018-05-18T10:23:29.087Z,67.70
2018-05-18T10:25:57.023Z,68.60
2018-05-18T10:28:26.951Z,68.00
2018-05-18T10:30:54.114Z,67.50
2018-05-18T10:33:21.311Z,67.70
2018-05-18T10:35:48.473Z,68.00
2018-05-18T10:38:15.635Z,68.00
2018-05-18T10:40:43.705Z,68.20
2018-05-18T10:43:10.928Z,68.20
2018-05-18T10:45:38.204Z,67.60
2018-05-18T10:48:05.525Z,68.20
2018-05-18T10:50:33.457Z,67.80
2018-05-18T10:53:00.740Z,67.70
2018-05-18T10:55:28.856Z,67.60
2018-05-18T10:57:56.068Z,68.10
2018-05-18T11:00:23.999Z,68.20
2018-05-18T11:02:51.168Z,68.20
2018-05-18T11:05:18.399Z,68.20
2018-05-18T11:07:45.577Z,68.00
2018-05-18T11:10:12.739Z,68.40
2018-05-18T11:12:40.676Z,68.60
2018-05-18T11:15:07.843Z,68.50
2018-05-18T11:17:35.370Z,68.20
2018-05-18T11:20:03.509Z,68.30
2018-05-18T11:22:31.451Z,68.60
2018-05-18T11:24:59.571Z,68.40
2018-05-18T11:27:27.652Z,68.60
2018-05-18T11:29:54.816Z,68.40
2018-05-18T11:32:22.091Z,68.80
2018-05-18T11:34:50.820Z,68.20
2018-05-18T11:37:18.067Z,68.20
2018-05-18T11:39:46.041Z,68.30
2018-05-18T11:42:13.223Z,68.50
2018-05-18T11:44:40.389Z,68.00
2018-05-18T11:47:07.588Z,68.40
2018-05-18T11:49:34.845Z,68.30
2018-05-18T11:52:02.053Z,68.80
2018-05-18T11:54:30.075Z,68.00
2018-05-18T11:56:57.235Z,67.60
2018-05-18T11:59:24.483Z,68.40
2018-05-18T12:01:51.648Z,67.70
2018-05-18T12:04:18.887Z,68.40
2018-05-18T12:06:46.344Z,67.80
2018-05-18T12:09:13.507Z,68.20
2018-05-18T12:11:40.745Z,68.00
2018-05-18T12:14:07.996Z,68.10
2018-05-18T12:16:35.894Z,68.80
2018-05-18T12:19:03.120Z,68.60
2018-05-18T12:21:31.090Z,68.80
2018-05-18T12:23:59.064Z,68.40
2018-05-18T12:26:26.231Z,67.90
2018-05-18T12:28:54.388Z,68.50
2018-05-18T12:31:22.051Z,68.30
2018-05-18T12:33:49.303Z,68.40
2018-05-18T12:36:16.553Z,67.60
2018-05-18T12:38:43.755Z,68.70
2018-05-18T12:41:11.692Z,68.10
2018-05-18T12:43:38.927Z,68.10
2018-05-18T12:46:06.093Z,68.60
2018-05-18T12:48:33.448Z,68.90
2018-05-18T12:51:01.514Z,68.90
2018-05-18T12:53:28.760Z,68.80
2018-05-18T12:55:55.920Z,68.80
2018-05-18T12:58:23.088Z,68.80
2018-05-18T13:00:50.316Z,68.40
2018-05-18T13:03:17.561Z,68.20
2018-05-18T13:05:44.759Z,68.20
2018-05-18T13:08:12.038Z,68.70
2018-05-18T13:10:39.201Z,67.90
2018-05-18T13:13:06.384Z,68.00
2018-05-18T13:15:33.738Z,68.70
2018-05-18T13:18:00.897Z,68.10
2018-05-18T13:20:29.113Z,68.30
2018-05-18T13:22:56.264Z,68.80
2018-05-18T13:25:23.428Z,67.90
2018-05-18T13:27:52.360Z,68.00
2018-05-18T13:30:19.618Z,68.00
2018-05-18T13:32:47.789Z,68.80
2018-05-18T13:35:14.955Z,68.30
2018-05-18T13:37:42.122Z,68.50
2018-05-18T13:40:09.346Z,68.60
2018-05-18T13:42:37.292Z,68.10
2018-05-18T13:45:05.483Z,68.40
2018-05-18T13:47:32.640Z,68.20
2018-05-18T13:49:59.805Z,68.20
2018-05-18T13:52:27.007Z,68.40
2018-05-18T13:54:55.016Z,68.40
2018-05-18T13:57:22.372Z,68.40
2018-05-18T13:59:49.562Z,68.50
2018-05-18T14:02:16.981Z,68.00
2018-05-18T14:04:44.271Z,68.30
2018-05-18T14:07:11.488Z,68.80
2018-05-18T14:09:38.696Z,68.30
2018-05-18T14:12:06.814Z,69.10
2018-05-18T14:14:33.971Z,69.10
2018-05-18T14:17:01.221Z,68.30
2018-05-18T14:19:28.384Z,68.20
2018-05-18T14:21:55.623Z,68.40
2018-05-18T14:24:22.783Z,68.40
2018-05-18T14:26:49.949Z,68.80
2018-05-18T14:29:17.178Z,68.50
2018-05-18T14:31:45.195Z,68.90
2018-05-18T14:34:13.216Z,68.90
2018-05-18T14:36:40.416Z,68.50
2018-05-18T14:39:09.980Z,68.60
2018-05-18T14:41:37.235Z,68.60
2018-05-18T14:44:05.212Z,68.70
2018-05-18T14:46:33.315Z,68.80
2018-05-18T14:49:01.396Z,68.80
2018-05-18T14:51:29.449Z,68.90
2018-05-18T14:53:57.496Z,68.70
2018-05-18T14:56:24.746Z,68.80
2018-05-18T14:58:51.916Z,68.90
2018-05-18T15:01:19.153Z,68.70
2018-05-18T15:03:47.272Z,68.70
2018-05-18T15:06:14.537Z,68.60
2018-05-18T15:08:42.555Z,68.60
2018-05-18T15:11:09.747Z,68.50
2018-05-18T15:13:36.951Z,68.70
2018-05-18T15:16:04.205Z,68.60
2018-05-18T15:18:31.367Z,68.80
2018-05-18T15:20:58.532Z,68.60
2018-05-18T15:23:25.805Z,69.00
2018-05-18T15:25:53.747Z,68.80
2018-05-18T15:28:21.840Z,68.50
2018-05-18T15:30:49.003Z,69.00
2018-05-18T15:33:17.744Z,69.10
2018-05-18T15:35:44.911Z,69.00
2018-05-18T15:38:12.076Z,68.90
2018-05-18T15:40:40.153Z,69.20
2018-05-18T15:43:08.232Z,69.30
2018-05-18T15:45:35.396Z,68.90
2018-05-18T15:48:03.328Z,68.10
2018-05-18T15:50:31.386Z,68.60
2018-05-18T15:52:58.551Z,68.60
2018-05-18T15:55:26.653Z,69.20
2018-05-18T15:57:53.811Z,69.10
2018-05-18T16:00:20.979Z,68.90
2018-05-18T16:02:49.840Z,68.60
2018-05-18T16:05:17.917Z,69.20
2018-05-18T16:07:45.875Z,68.50
2018-05-18T16:10:13.968Z,68.40
2018-05-18T16:12:41.136Z,68.30
2018-05-18T16:15:09.864Z,68.60
2018-05-18T16:17:37.039Z,68.70
2018-05-18T16:20:04.200Z,68.70
2018-05-18T16:22:32.151Z,68.90
2018-05-18T16:24:59.763Z,68.70
2018-05-18T16:27:27.692Z,68.50
2018-05-18T16:29:55.795Z,68.60
2018-05-18T16:32:23.726Z,68.50
2018-05-18T16:34:50.896Z,68.40
2018-05-18T16:37:19.061Z,68.70
2018-05-18T16:39:47.288Z,68.70
2018-05-18T16:42:14.448Z,68.90
2018-05-18T16:44:41.614Z,69.00
2018-05-18T16:47:08.780Z,69.00
2018-05-18T16:49:36.834Z,68.60
2018-05-18T16:52:04.867Z,68.50
2018-05-18T16:54:32.889Z,68.70
2018-05-18T16:57:00.134Z,68.70
2018-05-18T16:59:27.385Z,68.80
2018-05-18T17:01:55.458Z,68.80
2018-05-18T17:04:23.669Z,68.80
2018-05-18T17:06:51.707Z,68.70
2018-05-18T17:09:19.677Z,69.10
2018-05-18T17:11:47.800Z,69.10
2018-05-18T17:14:16.740Z,69.50
2018-05-18T17:16:45.583Z,69.60
2018-05-18T17:19:14.062Z,69.10
2018-05-18T17:21:42.189Z,69.10
2018-05-18T17:24:10.264Z,68.80
2018-05-18T17:26:37.428Z,69.30
2018-05-18T17:29:04.603Z,69.30
2018-05-18T17:31:31.769Z,69.10
2018-05-18T17:33:58.935Z,69.20
2018-05-18T17:36:26.863Z,69.30
2018-05-18T17:38:55.009Z,69.30
2018-05-18T17:41:22.168Z,69.40
2018-05-18T17:43:50.272Z,69.10
2018-05-18T17:46:17.436Z,69.20
2018-05-18T17:48:45.496Z,69.30
2018-05-18T17:51:13.463Z,69.00
2018-05-18T17:53:41.425Z,69.40
2018-05-18T17:56:08.588Z,68.80
2018-05-18T17:58:35.750Z,68.80
2018-05-18T18:01:03.062Z,68.80
2018-05-18T18:03:30.306Z,69.00
2018-05-18T18:05:57.479Z,68.80
2018-05-18T18:08:24.644Z,68.60
2018-05-18T18:10:52.792Z,69.00
2018-05-18T18:13:20.043Z,69.00
2018-05-18T18:15:48.219Z,68.80
2018-05-18T18:18:15.392Z,69.00
2018-05-18T18:20:42.623Z,68.70
2018-05-18T18:23:09.792Z,68.80
2018-05-18T18:25:36.961Z,68.70
2018-05-18T18:28:04.124Z,69.00
2018-05-18T18:30:32.180Z,69.00
2018-05-18T18:32:59.397Z,69.00
2018-05-18T18:35:26.656Z,69.40
2018-05-18T18:37:53.911Z,69.10
2018-05-18T18:40:21.127Z,69.20
2018-05-18T18:42:49.128Z,68.90
2018-05-18T18:45:16.308Z,68.80
2018-05-18T18:47:43.476Z,69.00
2018-05-18T18:50:10.645Z,69.50
2018-05-18T18:52:42.570Z,69.50
2018-05-18T18:55:09.849Z,69.30
2018-05-18T18:57:37.799Z,69.20
2018-05-18T19:00:08.332Z,69.00
2018-05-18T19:02:35.556Z,68.90
2018-05-18T19:05:08.325Z,68.60
2018-05-18T19:07:35.592Z,68.60
2018-05-18T19:10:02.854Z,68.80
2018-05-18T19:12:30.050Z,68.60
2018-05-18T19:14:58.007Z,68.50
2018-05-18T19:17:25.228Z,68.50
2018-05-18T19:19:52.495Z,68.50
2018-05-18T19:22:19.740Z,68.20
2018-05-18T19:24:46.911Z,68.40
2018-05-18T19:27:14.088Z,68.60
2018-05-18T19:29:42.074Z,68.60
2018-05-18T19:32:10.013Z,68.50
2018-05-18T19:34:37.188Z,68.50
2018-05-18T19:37:05.201Z,68.70
2018-05-18T19:39:32.449Z,68.70
2018-05-18T19:41:59.814Z,68.40
2018-05-18T19:44:27.064Z,68.60
2018-05-18T19:46:54.253Z,68.30
2018-05-18T19:49:21.430Z,68.40
2018-05-18T19:51:50.217Z,68.10
2018-05-18T19:54:18.961Z,68.00
2018-05-18T19:56:46.405Z,68.10
2018-05-18T19:59:14.395Z,68.30
2018-05-18T20:01:41.572Z,68.10
2018-05-18T20:04:10.460Z,68.00
2018-05-18T20:06:38.414Z,68.30
2018-05-18T20:09:06.583Z,68.30
2018-05-18T20:11:33.755Z,68.30
2018-05-18T20:14:00.964Z,68.10
2018-05-18T20:16:28.136Z,68.30
2018-05-18T20:18:55.308Z,67.90
2018-05-18T20:21:22.483Z,68.10
2018-05-18T20:23:50.935Z,67.80
2018-05-18T20:26:18.156Z,67.90
2018-05-18T20:28:45.327Z,68.00
2018-05-18T20:31:12.501Z,68.00
2018-05-18T20:33:40.448Z,68.20
2018-05-18T20:36:07.712Z,68.10
2018-05-18T20:38:35.237Z,68.00
2018-05-18T20:41:02.412Z,67.90
2018-05-18T20:43:29.647Z,67.90
2018-05-18T20:45:56.816Z,67.60
2018-05-18T20:48:24.049Z,67.90
2018-05-18T20:50:51.224Z,68.00
2018-05-18T20:53:19.276Z,68.40
2018-05-18T20:55:46.529Z,67.80
2018-05-18T20:58:13.701Z,67.80
2018-05-18T21:00:41.636Z,68.30
2018-05-18T21:03:08.804Z,67.80
2018-05-18T21:05:35.983Z,68.00
2018-05-18T21:08:03.204Z,68.00
2018-05-18T21:10:30.434Z,67.90
2018-05-18T21:12:58.428Z,68.00
2018-05-18T21:15:25.596Z,67.90
2018-05-18T21:17:53.680Z,68.20
2018-05-18T21:20:21.842Z,67.90
2018-05-18T21:22:50.004Z,67.90
2018-05-18T21:25:18.115Z,67.90
2018-05-18T21:27:45.287Z,68.10
2018-05-18T21:30:13.300Z,68.10
2018-05-18T21:32:41.380Z,68.10
2018-05-18T21:35:09.519Z,67.90
2018-05-18T21:37:37.113Z,68.00
2018-05-18T21:40:04.288Z,67.80
2018-05-18T21:42:31.460Z,67.80
2018-05-18T21:44:59.395Z,67.70
2018-05-18T21:47:26.632Z,67.70
2018-05-18T21:49:53.813Z,67.80
2018-05-18T21:52:21.141Z,67.80
2018-05-18T21:54:48.392Z,68.10
2018-05-18T21:57:15.676Z,68.20
2018-05-18T21:59:42.932Z,68.10
2018-05-18T22:02:10.152Z,68.20
2018-05-18T22:04:37.319Z,68.20
2018-05-18T22:07:04.483Z,68.40
2018-05-18T22:09:31.659Z,68.40
2018-05-18T22:11:59.671Z,68.80
2018-05-18T22:14:26.839Z,68.70
2018-05-18T22:16:54.042Z,68.50
2018-05-18T22:19:21.967Z,68.30
2018-05-18T22:21:49.138Z,68.30
2018-05-18T22:24:16.348Z,68.80
2018-05-18T22:26:43.709Z,67.90
2018-05-18T22:29:10.905Z,67.70
2018-05-18T22:31:38.115Z,67.50
2018-05-18T22:34:05.280Z,67.40
2018-05-18T22:36:32.519Z,67.20
2018-05-18T22:38:59.765Z,67.20
2018-05-18T22:41:26.931Z,67.00
2018-05-18T22:43:55.032Z,67.00
2018-05-18T22:46:22.211Z,67.20
2018-05-18T22:48:50.565Z,67.20
2018-05-18T22:51:17.887Z,67.20
2018-05-18T22:53:45.057Z,67.30
2018-05-18T22:56:12.281Z,67.30
2018-05-18T22:58:39.488Z,67.40
2018-05-18T23:01:08.365Z,67.50
2018-05-18T23:03:36.432Z,67.40
2018-05-18T23:06:03.600Z,67.50
2018-05-18T23:08:31.625Z,67.60
2018-05-18T23:10:58.833Z,67.60
2018-05-18T23:13:27.532Z,67.40
2018-05-18T23:15:54.691Z,67.40
2018-05-18T23:18:22.623Z,67.60
2018-05-18T23:20:49.832Z,67.50
2018-05-18T23:23:17.768Z,67.60
2018-05-18T23:25:45.793Z,67.70
2018-05-18T23:28:12.964Z,67.60
2018-05-18T23:30:40.900Z,67.70
2018-05-18T23:33:08.149Z,67.70
2018-05-18T23:35:35.311Z,67.70
2018-05-18T23:38:02.553Z,67.80
2018-05-18T23:40:29.715Z,67.80
2018-05-18T23:42:57.681Z,67.90
2018-05-18T23:45:25.649Z,68.00
2018-05-18T23:47:52.815Z,67.90
2018-05-18T23:50:19.984Z,68.00
2018-05-18T23:52:47.148Z,68.00
2018-05-18T23:55:15.988Z,67.80
2018-05-18T23:57:43.192Z,67.80
